Time;durP1;ratioP1;P1;durP2;ratioP2;P2;SDS_P1;SDS_P2;PMS_P1;PMS_P2;Temp;Humidity;BMP_temperature;BMP_pressure;BME280_temperature;BME280_humidity;BME280_pressure;Samples;Min_cycle;Max_cycle;Signal;HPM_P1;HPM_P2
2023/06/29 00:00:26;;;;;;;7.55;1.58;;;29.00;97.90;;;;;;5088084;28;20027;-61
2023/06/29 00:02:54;;;;;;;5.85;1.38;;;29.10;97.80;;;;;;5088172;28;20024;-61
2023/06/29 00:05:21;;;;;;;8.63;1.90;;;29.40;99.90;;;;;;5087907;28;20021;-61
2023/06/29 00:07:48;;;;;;;6.35;1.40;;;;;;;;;;5088271;28;20068;-62
2023/06/29 00:10:15;;;;;;;4.95;1.30;;;29.10;97.70;;;;;;5088070;28;20017;-61
2023/06/29 00:12:43;;;;;;;3.97;1.08;;;;;;;;;;5088024;28;20033;-61
2023/06/29 00:15:10;;;;;;;5.30;1.27;;;29.30;99.90;;;;;;5087407;28;20273;-62
2023/06/29 00:17:38;;;;;;;6.00;1.20;;;;;;;;;;5088464;28;20309;-64
2023/06/29 00:20:10;;;;;;;4.35;1.20;;;29.10;99.90;;;;;;5087472;28;20025;-61
2023/06/29 00:22:39;;;;;;;3.25;1.30;;;;;;;;;;5088365;28;20032;-61
2023/06/29 00:25:08;;;;;;;2.58;1.20;;;;;;;;;;5087652;28;20024;-61
2023/06/29 00:27:34;;;;;;;4.13;1.10;;;;;;;;;;5088227;28;20036;-60
2023/06/29 00:30:01;;;;;;;3.30;1.30;;;;;;;;;;5087416;28;20017;-61
2023/06/29 00:32:28;;;;;;;3.88;1.33;;;;;;;;;;5088104;28;20024;-61
2023/06/29 00:34:54;;;;;;;4.60;1.10;;;28.10;99.90;;;;;;5087210;28;20039;-61
2023/06/29 00:37:21;;;;;;;4.38;1.27;;;;;;;;;;5087477;28;20028;-61
2023/06/29 00:39:47;;;;;;;6.28;2.28;;;28.50;97.10;;;;;;5087351;28;20020;-61
2023/06/29 00:42:14;;;;;;;9.45;2.40;;;28.90;97.20;;;;;;5087421;28;20037;-61
2023/06/29 00:44:41;;;;;;;3.20;1.60;;;;;;;;;;5087307;28;20017;-61
2023/06/29 00:47:08;;;;;;;5.70;1.80;;;28.90;97.00;;;;;;5087612;28;20212;-62
2023/06/29 00:49:34;;;;;;;5.85;1.40;;;28.90;97.30;;;;;;5086939;28;20082;-61
2023/06/29 00:52:01;;;;;;;4.68;1.20;;;;;;;;;;5087681;28;20030;-61
2023/06/29 00:54:28;;;;;;;4.18;1.40;;;;;;;;;;5086752;28;20024;-61
2023/06/29 00:56:58;;;;;;;3.65;1.10;;;28.90;97.20;;;;;;5086791;28;20052;-61
2023/06/29 00:59:25;;;;;;;6.38;1.40;;;;;;;;;;5085998;28;20036;-61
2023/06/29 01:01:52;;;;;;;5.07;1.40;;;;;;;;;;5087267;28;20028;-61
2023/06/29 01:04:28;;;;;;;4.95;1.10;;;28.90;97.40;;;;;;5086598;28;20224;-61
2023/06/29 01:07:00;;;;;;;5.00;1.00;;;28.90;98.00;;;;;;5085614;28;20048;-61
2023/06/29 01:09:28;;;;;;;;;;;29.00;97.80;;;;;;5087031;28;20213;-61
2023/06/29 01:11:57;;;;;;;5.95;1.00;;;28.90;97.90;;;;;;5087131;28;19915;-60
2023/06/29 01:14:25;;;;;;;5.55;1.00;;;28.90;98.00;;;;;;5086797;28;20020;-61
2023/06/29 01:16:53;;;;;;;4.93;1.17;;;28.90;97.90;;;;;;5087135;28;20028;-61
2023/06/29 01:19:28;;;;;;;6.63;1.00;;;28.80;98.40;;;;;;5086642;28;20020;-61
2023/06/29 01:22:03;;;;;;;3.67;1.00;;;;;;;;;;5086939;28;20303;-61
2023/06/29 01:24:36;;;;;;;6.70;2.13;;;;;;;;;;5086340;28;20020;-61
2023/06/29 01:27:05;;;;;;;5.68;1.92;;;;;;;;;;5086548;28;20320;-61
2023/06/29 01:29:31;;;;;;;6.90;1.58;;;;;;;;;;5086221;28;20036;-61
2023/06/29 01:32:03;;;;;;;4.30;1.27;;;28.70;98.70;;;;;;5086707;28;20028;-61
2023/06/29 01:34:34;;;;;;;6.40;1.33;;;28.70;99.90;;;;;;5086172;28;20016;-61
2023/06/29 01:37:08;;;;;;;1.92;0.98;;;;;;;;;;5086697;28;20044;-62
2023/06/29 01:40:00;;;;;;;6.20;1.20;;;28.60;98.00;;;;;;5086290;28;20083;-64
2023/06/29 01:42:29;;;;;;;4.72;1.25;;;28.60;98.30;;;;;;5086422;28;20268;-63
2023/06/29 01:44:59;;;;;;;8.38;1.23;;;28.60;98.30;;;;;;5086123;28;20328;-60
2023/06/29 01:47:27;;;;;;;7.63;1.63;;;28.80;98.30;;;;;;5086310;28;20037;-61
2023/06/29 01:49:53;;;;;;;4.32;1.20;;;;;;;;;;5085696;28;20032;-61
2023/06/29 01:52:20;;;;;;;6.05;1.30;;;28.70;98.20;;;;;;5086117;28;20096;-61
2023/06/29 01:54:47;;;;;;;6.85;1.15;;;28.80;98.60;;;;;;5086075;28;20032;-62
2023/06/29 01:57:14;;;;;;;6.70;1.10;;;;;;;;;;5084672;28;20111;-61
2023/06/29 01:59:40;;;;;;;5.57;1.05;;;29.30;99.10;;;;;;5085952;28;20024;-60
2023/06/29 02:02:07;;;;;;;3.35;0.80;;;;;;;;;;5085906;28;20043;-61
2023/06/29 02:04:35;;;;;;;3.60;1.10;;;;;;;;;;5085602;28;20048;-61
2023/06/29 02:07:03;;;;;;;6.05;1.20;;;;;;;;;;5085929;28;20028;-61
2023/06/29 02:09:29;;;;;;;4.40;1.20;;;;;;;;;;5085319;28;20325;-60
2023/06/29 02:12:00;;;;;;;5.43;1.00;;;;;;;;;;5085728;28;20255;-61
2023/06/29 02:14:28;;;;;;;5.55;1.10;;;;;;;;;;5085599;28;20020;-62
2023/06/29 02:16:55;;;;;;;4.75;0.93;;;;;;;;;;5085652;28;20029;-61
2023/06/29 02:19:21;;;;;;;5.75;1.42;;;;;;;;;;5085770;28;20016;-61
2023/06/29 02:21:48;;;;;;;3.67;0.93;;;;;;;;;;5085890;28;20032;-60
2023/06/29 02:24:15;;;;;;;5.38;1.08;;;;;;;;;;5085505;28;20040;-65
2023/06/29 02:26:41;;;;;;;6.75;1.20;;;;;;;;;;5085837;28;20020;-62
2023/06/29 02:29:09;;;;;;;8.02;1.20;;;;;;;;;;5084924;28;20244;-62
2023/06/29 02:31:36;;;;;;;3.47;1.48;;;;;;;;;;5085265;28;20031;-61
2023/06/29 02:34:02;;;;;;;4.07;1.70;;;;;;;;;;5084991;28;20012;-61
2023/06/29 02:36:30;;;;;;;7.18;2.20;;;;;;;;;;5085198;28;20301;-62
2023/06/29 02:38:57;;;;;;;5.93;2.13;;;;;;;;;;5084843;28;20033;-61
2023/06/29 02:41:24;;;;;;;8.38;2.15;;;;;;;;;;5085228;28;20028;-61
2023/06/29 02:43:52;;;;;;;6.70;1.90;;;;;;;;;;5085002;28;20208;-61
2023/06/29 02:46:19;;;;;;;9.45;2.40;;;;;;;;;;5085233;28;20032;-61
2023/06/29 02:48:46;;;;;;;7.93;2.20;;;28.60;99.90;;;;;;5084955;28;20047;-61
2023/06/29 02:51:13;;;;;;;9.57;2.33;;;;;;;;;;5085165;28;20025;-60
2023/06/29 02:53:39;;;;;;;8.32;2.03;;;;;;;;;;5084924;28;20321;-61
2023/06/29 02:56:06;;;;;;;5.60;1.90;;;;;;;;;;5084539;28;20220;-61
2023/06/29 02:58:33;;;;;;;5.47;1.65;;;;;;;;;;5084723;28;20032;-57
2023/06/29 03:01:00;;;;;;;5.55;2.05;;;;;;;;;;5084589;28;20040;-56
2023/06/29 03:03:26;;;;;;;8.07;2.17;;;;;;;;;;5084959;28;20048;-55
2023/06/29 03:05:54;;;;;;;6.43;1.85;;;28.70;99.60;;;;;;5095363;28;20069;-57
2023/06/29 03:08:20;;;;;;;3.30;1.92;;;28.70;99.70;;;;;;5083675;28;20059;-55
2023/06/29 03:10:47;;;;;;;6.75;2.30;;;;;;;;;;5083922;28;20213;-56
2023/06/29 03:13:14;;;;;;;8.85;2.05;;;;;;;;;;5083856;28;20021;-56
2023/06/29 03:15:40;;;;;;;5.18;1.90;;;;;;;;;;5083784;28;20032;-59
2023/06/29 03:18:07;;;;;;;5.00;2.13;;;;;;;;;;5083598;28;20086;-57
2023/06/29 03:20:34;;;;;;;7.72;2.42;;;;;;;;;;5083866;28;20031;-57
2023/06/29 03:23:00;;;;;;;6.90;2.47;;;;;;;;;;5083104;28;20287;-59
2023/06/29 03:25:27;;;;;;;4.95;2.45;;;;;;;;;;5083716;28;20309;-56
2023/06/29 03:27:54;;;;;;;5.60;2.20;;;;;;;;;;5083646;28;20025;-56
2023/06/29 03:30:21;;;;;;;7.35;2.15;;;;;;;;;;5087312;28;20113;-58
2023/06/29 03:32:47;;;;;;;6.55;2.22;;;28.80;99.60;;;;;;5088142;28;20206;-56
2023/06/29 03:35:14;;;;;;;5.75;2.25;;;;;;;;;;5086706;28;20063;-57
2023/06/29 03:37:41;;;;;;;6.03;1.90;;;;;;;;;;5086784;28;20056;-57
2023/06/29 03:40:08;;;;;;;5.22;1.88;;;;;;;;;;5087320;28;20087;-57
2023/06/29 03:42:34;;;;;;;5.75;1.80;;;;;;;;;;5088222;28;20099;-63
2023/06/29 03:45:01;;;;;;;6.78;1.92;;;;;;;;;;5087449;28;20032;-57
2023/06/29 03:47:29;;;;;;;7.47;2.17;;;;;;;;;;5087832;28;20048;-62
2023/06/29 03:49:55;;;;;;;4.88;1.85;;;;;;;;;;5087193;28;20082;-57
2023/06/29 03:52:22;;;;;;;6.95;2.20;;;;;;;;;;5088041;28;20262;-57
2023/06/29 03:54:49;;;;;;;5.78;2.03;;;;;;;;;;5086594;28;20197;-55
2023/06/29 03:57:16;;;;;;;6.60;2.38;;;;;;;;;;5094311;28;20090;-56
2023/06/29 03:59:43;;;;;;;16.55;2.30;;;;;;;;;;5107759;28;20270;-56
2023/06/29 04:02:09;;;;;;;5.03;1.70;;;;;;;;;;5106501;28;20208;-56
2023/06/29 04:04:36;;;;;;;6.00;1.80;;;;;;;;;;5107688;28;20073;-57
2023/06/29 04:07:03;;;;;;;6.60;1.52;;;28.70;99.60;;;;;;5107901;28;20024;-59
2023/06/29 04:09:33;;;;;;;3.58;1.75;;;;;;;;;;5107366;28;20266;-55
2023/06/29 04:12:00;;;;;;;4.03;1.55;;;;;;;;;;5107856;28;20091;-57
2023/06/29 04:14:26;;;;;;;3.33;1.52;;;;;;;;;;5107464;28;20032;-57
2023/06/29 04:16:53;;;;;;;6.47;1.50;;;28.60;99.40;;;;;;5107591;28;20020;-59
2023/06/29 04:19:19;;;;;;;6.65;1.50;;;;;;;;;;5107526;28;20032;-60
2023/06/29 04:21:46;;;;;;;7.55;1.48;;;;;;;;;;5107633;28;20051;-54
2023/06/29 04:24:13;;;;;;;4.60;1.48;;;;;;;;;;5107127;28;20208;-56
2023/06/29 04:26:41;;;;;;;3.28;1.33;;;;;;;;;;5107550;28;20043;-60
2023/06/29 04:29:07;;;;;;;4.90;1.50;;;;;;;;;;5107048;28;20062;-56
2023/06/29 04:31:36;;;;;;;3.67;1.60;;;;;;;;;;5107173;28;20023;-58
2023/06/29 04:34:03;;;;;;;4.40;1.50;;;;;;;;;;5107217;28;20324;-57
2023/06/29 04:36:30;;;;;;;5.82;1.30;;;;;;;;;;5107308;28;20263;-57
2023/06/29 04:38:57;;;;;;;4.13;1.77;;;;;;;;;;5106801;28;20016;-55
2023/06/29 04:41:30;;;;;;;4.10;1.58;;;;;;;;;;5106889;28;20043;-57
2023/06/29 04:44:01;;;;;;;2.83;1.30;;;;;;;;;;5107144;28;20246;-60
2023/06/29 04:46:28;;;;;;;6.40;1.75;;;;;;;;;;5100932;28;20033;-60
2023/06/29 04:48:55;;;;;;;5.93;1.70;;;;;;;;;;5089534;28;20392;-55
2023/06/29 04:51:21;;;;;;;3.45;1.17;;;;;;;;;;5106853;28;20024;-57
2023/06/29 04:53:48;;;;;;;4.18;1.30;;;;;;;;;;5106937;28;20066;-58
2023/06/29 04:56:15;;;;;;;7.60;1.20;;;;;;;;;;5106684;28;20063;-54
2023/06/29 04:58:41;;;;;;;3.38;1.52;;;;;;;;;;5106551;28;20097;-54
2023/06/29 05:01:08;;;;;;;4.15;1.17;;;;;;;;;;5106496;28;20036;-55
2023/06/29 05:03:35;;;;;;;5.15;1.70;;;;;;;;;;5106460;28;20056;-58
2023/06/29 05:06:02;;;;;;;5.45;1.30;;;;;;;;;;5106531;28;20070;-54
2023/06/29 05:08:29;;;;;;;5.88;1.50;;;;;;;;;;5106201;28;20031;-57
2023/06/29 05:10:55;;;;;;;3.97;1.20;;;;;;;;;;5106527;28;20043;-59
2023/06/29 05:13:22;;;;;;;4.40;1.30;;;;;;;;;;5106684;28;20027;-54
2023/06/29 05:15:49;;;;;;;4.60;1.23;;;;;;;;;;5106102;28;20039;-59
2023/06/29 05:18:15;;;;;;;5.22;1.30;;;;;;;;;;5106579;28;20100;-56
2023/06/29 05:20:42;;;;;;;11.95;1.27;;;;;;;;;;5106277;28;20084;-57
2023/06/29 05:23:11;;;;;;;4.38;1.23;;;;;;;;;;5106133;28;20087;-60
2023/06/29 05:25:38;;;;;;;4.78;1.17;;;;;;;;;;5106270;28;20088;-55
2023/06/29 05:28:05;;;;;;;4.22;1.00;;;;;;;;;;5105914;28;20028;-54
2023/06/29 05:30:31;;;;;;;6.25;1.30;;;;;;;;;;5105747;28;20024;-60
2023/06/29 05:32:58;;;;;;;4.07;1.20;;;;;;;;;;5106009;28;20032;-54
2023/06/29 05:35:25;;;;;;;6.40;1.45;;;28.50;99.00;;;;;;5105768;28;20012;-56
2023/06/29 05:37:51;;;;;;;6.53;1.20;;;;;;;;;;5105632;28;20024;-54
2023/06/29 05:40:18;;;;;;;9.55;1.25;;;28.40;98.90;;;;;;5105827;28;20046;-57
2023/06/29 05:42:44;;;;;;;4.85;1.20;;;28.50;99.10;;;;;;5105875;28;20243;-59
2023/06/29 05:45:12;;;;;;;4.85;1.17;;;28.40;99.10;;;;;;5105495;28;20065;-59
2023/06/29 05:47:38;;;;;;;10.68;1.90;;;28.50;99.20;;;;;;5106028;28;20045;-57
2023/06/29 05:50:05;;;;;;;8.55;1.17;;;28.50;99.40;;;;;;5105512;28;20048;-59
2023/06/29 05:52:33;;;;;;;4.82;1.17;;;28.50;99.40;;;;;;5105404;28;20200;-57
2023/06/29 05:55:00;;;;;;;6.18;1.30;;;;;;;;;;5105455;28;20028;-59
2023/06/29 05:57:29;;;;;;;6.25;1.10;;;;;;;;;;5105344;28;20266;-57
2023/06/29 05:59:56;;;;;;;3.85;1.20;;;;;;;;;;5105283;28;20052;-55
2023/06/29 06:02:23;;;;;;;6.63;1.60;;;28.50;99.30;;;;;;5105839;28;20380;-58
2023/06/29 06:04:49;;;;;;;6.32;1.23;;;;;;;;;;5105312;28;20208;-60
2023/06/29 06:07:29;;;;;;;3.83;1.10;;;28.40;99.20;;;;;;5105568;28;20089;-59
2023/06/29 06:09:56;;;;;;;5.05;1.30;;;;;;;;;;5105163;28;20324;-55
2023/06/29 06:12:23;;;;;;;5.20;1.20;;;28.40;99.10;;;;;;5105632;28;20043;-57
2023/06/29 06:14:50;;;;;;;8.68;1.48;;;;;;;;;;5105367;28;20024;-57
2023/06/29 06:17:16;;;;;;;5.10;1.02;;;;;;;;;;5105435;28;20093;-55
2023/06/29 06:19:43;;;;;;;4.15;1.08;;;28.40;99.20;;;;;;5104980;28;20027;-56
2023/06/29 06:22:10;;;;;;;8.82;2.35;;;;;;;;;;5105195;28;20039;-56
2023/06/29 06:24:37;;;;;;;12.60;3.33;;;28.50;99.90;;;;;;5105027;28;20016;-56
2023/06/29 06:27:03;;;;;;;12.10;3.65;;;28.40;99.80;;;;;;5104822;28;20035;-54
2023/06/29 06:29:30;;;;;;;13.73;3.38;;;28.40;99.80;;;;;;5104617;28;20035;-56
2023/06/29 06:31:56;;;;;;;8.13;2.55;;;;;;;;;;5104763;28;20089;-55
2023/06/29 06:34:23;;;;;;;9.77;2.58;;;28.50;99.90;;;;;;5104818;28;20024;-56
2023/06/29 06:36:50;;;;;;;8.07;2.05;;;;;;;;;;5104857;28;20028;-55
2023/06/29 06:39:16;;;;;;;7.88;1.90;;;;;;;;;;5104631;28;20020;-59
2023/06/29 06:41:43;;;;;;;6.05;1.90;;;;;;;;;;5104998;28;20028;-57
2023/06/29 06:44:10;;;;;;;7.30;2.00;;;;;;;;;;5104503;28;20039;-57
2023/06/29 06:46:36;;;;;;;4.72;1.75;;;;;;;;;;5104831;28;20287;-55
2023/06/29 06:49:03;;;;;;;6.05;1.83;;;;;;;;;;5104720;28;20038;-57
2023/06/29 06:51:29;;;;;;;7.78;1.63;;;;;;;;;;5104568;28;20211;-55
2023/06/29 06:53:56;;;;;;;7.18;1.58;;;;;;;;;;5104429;28;20312;-55
2023/06/29 06:56:23;;;;;;;5.97;1.33;;;;;;;;;;5104407;28;20039;-54
2023/06/29 06:58:50;;;;;;;7.65;2.05;;;;;;;;;;5104799;28;20032;-55
2023/06/29 07:01:17;;;;;;;9.45;2.53;;;;;;;;;;5093785;28;20063;-55
2023/06/29 07:03:44;;;;;;;12.75;3.83;;;;;;;;;;5088271;28;20020;-54
2023/06/29 07:06:10;;;;;;;11.00;3.20;;;;;;;;;;5101266;28;20039;-58
2023/06/29 07:08:37;;;;;;;11.13;3.63;;;;;;;;;;5104613;28;20361;-60
2023/06/29 07:11:04;;;;;;;13.73;3.78;;;;;;;;;;5104300;28;20028;-55
2023/06/29 07:13:31;;;;;;;12.25;3.33;;;;;;;;;;5104084;28;20339;-59
2023/06/29 07:15:58;;;;;;;10.10;2.70;;;;;;;;;;5104528;28;20060;-58
2023/06/29 07:18:25;;;;;;;14.00;3.60;;;;;;;;;;5104632;28;20320;-59
2023/06/29 07:20:51;;;;;;;12.57;3.40;;;;;;;;;;5104533;28;20043;-59
2023/06/29 07:23:19;;;;;;;7.78;2.80;;;;;;;;;;5104375;28;20020;-54
2023/06/29 07:25:45;;;;;;;9.77;2.88;;;;;;;;;;5104547;28;20032;-58
2023/06/29 07:28:12;;;;;;;10.68;3.00;;;;;;;;;;5104008;28;20232;-58
2023/06/29 07:30:39;;;;;;;7.05;2.13;;;;;;;;;;5103985;28;20040;-54
2023/06/29 07:33:05;;;;;;;6.07;2.13;;;;;;;;;;5104761;28;20283;-57
2023/06/29 07:35:32;;;;;;;9.77;2.00;;;;;;;;;;5104170;28;20032;-55
2023/06/29 07:37:58;;;;;;;7.75;1.40;;;;;;;;;;5104492;28;20038;-59
2023/06/29 07:40:25;;;;;;;7.65;1.60;;;28.40;99.90;;;;;;5104066;28;20097;-59
2023/06/29 07:42:51;;;;;;;6.85;1.23;;;;;;;;;;5104521;28;20028;-61
2023/06/29 07:45:18;;;;;;;8.73;1.30;;;;;;;;;;5104128;28;20020;-55
2023/06/29 07:47:44;;;;;;;5.60;1.30;;;28.50;99.90;;;;;;5103831;28;20039;-61
2023/06/29 07:50:11;;;;;;;4.20;0.90;;;;;;;;;;5103962;28;20024;-60
2023/06/29 07:52:38;;;;;;;4.57;1.27;;;;;;;;;;5104112;28;20227;-57
2023/06/29 07:55:04;;;;;;;6.68;1.55;;;;;;;;;;5104107;28;20050;-56
2023/06/29 07:57:31;;;;;;;5.85;1.70;;;;;;;;;;5103929;28;20271;-59
2023/06/29 07:59:58;;;;;;;4.57;1.52;;;;;;;;;;5103787;28;20208;-56
2023/06/29 08:02:24;;;;;;;5.35;1.30;;;;;;;;;;5104479;28;20071;-57
2023/06/29 08:04:51;;;;;;;4.50;1.00;;;;;;;;;;5103954;28;20042;-59
2023/06/29 08:07:17;;;;;;;5.30;1.35;;;;;;;;;;5088350;28;20032;-59
2023/06/29 08:09:44;;;;;;;4.97;1.10;;;;;;;;;;5083285;28;20029;-60
2023/06/29 08:12:11;;;;;;;5.68;1.23;;;;;;;;;;5084022;28;20208;-57
2023/06/29 08:14:38;;;;;;;4.03;1.10;;;;;;;;;;5084165;28;20042;-55
2023/06/29 08:17:05;;;;;;;2.65;0.98;;;;;;;;;;5087850;28;20027;-56
2023/06/29 08:19:32;;;;;;;7.65;1.35;;;;;;;;;;5087525;28;20048;-59
2023/06/29 08:21:58;;;;;;;6.70;1.20;;;;;;;;;;5087369;28;20035;-59
2023/06/29 08:24:25;;;;;;;5.55;1.10;;;;;;;;;;5087246;28;20036;-54
2023/06/29 08:26:52;;;;;;;3.70;0.80;;;;;;;;;;5088131;28;20056;-59
2023/06/29 08:29:19;;;;;;;2.42;0.75;;;;;;;;;;5086760;28;20375;-61
2023/06/29 08:31:45;;;;;;;3.95;1.05;;;;;;;;;;5087247;28;20040;-60
2023/06/29 08:34:12;;;;;;;2.72;0.75;;;28.40;99.90;;;;;;5087490;28;20029;-62
2023/06/29 08:36:38;;;;;;;2.38;0.73;;;;;;;;;;5086940;28;20024;-61
2023/06/29 08:39:05;;;;;;;1.55;0.60;;;;;;;;;;5087149;28;20135;-60
2023/06/29 08:41:32;;;;;;;6.38;0.77;;;;;;;;;;5087353;28;20082;-61
2023/06/29 08:43:58;;;;;;;2.47;0.50;;;;;;;;;;5087354;28;20312;-60
2023/06/29 08:46:27;;;;;;;2.67;0.57;;;28.30;99.90;;;;;;5086817;28;20066;-56
2023/06/29 08:48:55;;;;;;;1.83;0.45;;;;;;;;;;5086853;28;20047;-60
2023/06/29 08:51:22;;;;;;;3.00;0.70;;;28.50;99.90;;;;;;5086668;28;20221;-57
2023/06/29 08:53:51;;;;;;;2.80;0.60;;;27.70;99.90;;;;;;5086588;28;20291;-55
2023/06/29 08:56:17;;;;;;;4.80;0.90;;;;;;;;;;5086846;28;20089;-60
2023/06/29 08:58:44;;;;;;;3.00;0.52;;;;;;;;;;5086397;28;20020;-57
2023/06/29 09:01:12;;;;;;;3.83;0.73;;;;;;;;;;5086415;28;20037;-55
2023/06/29 09:03:39;;;;;;;1.67;0.60;;;;;;;;;;5086605;28;20040;-55
2023/06/29 09:06:08;;;;;;;2.40;0.60;;;;;;;;;;5086875;28;20028;-60
2023/06/29 09:08:37;;;;;;;2.40;0.50;;;28.30;99.90;;;;;;5086242;28;20029;-60
2023/06/29 09:11:03;;;;;;;3.40;0.60;;;;;;;;;;5086108;28;20028;-58
2023/06/29 09:13:33;;;;;;;3.42;0.70;;;28.40;99.90;;;;;;5086097;28;20017;-55
2023/06/29 09:16:03;;;;;;;3.08;0.80;;;;;;;;;;5086679;28;20024;-59
2023/06/29 09:18:30;;;;;;;2.55;0.75;;;;;;;;;;5086259;28;20032;-61
2023/06/29 09:20:57;;;;;;;3.88;0.80;;;;;;;;;;5086505;28;20036;-63
2023/06/29 09:23:25;;;;;;;2.55;0.80;;;28.30;99.90;;;;;;5086475;28;20020;-59
2023/06/29 09:25:54;;;;;;;3.47;0.80;;;;;;;;;;5085629;28;20340;-57
2023/06/29 09:28:21;;;;;;;5.32;0.77;;;;;;;;;;5085529;28;20332;-61
2023/06/29 09:30:49;;;;;;;2.72;0.70;;;;;;;;;;5085871;28;20029;-64
2023/06/29 09:33:16;;;;;;;2.13;0.80;;;;;;;;;;5086201;28;20024;-53
2023/06/29 09:35:45;;;;;;;3.70;0.80;;;;;;;;;;5085826;28;20036;-64
2023/06/29 09:38:11;;;;;;;1.92;0.60;;;;;;;;;;5085627;28;20027;-64
2023/06/29 09:40:47;;;;;;;4.47;0.90;;;;;;;;;;5085516;28;20111;-63
2023/06/29 09:43:35;;;;;;;3.42;0.98;;;28.20;99.90;;;;;;5085582;28;20301;-57
2023/06/29 09:46:09;;;;;;;3.05;0.90;;;;;;;;;;5085483;28;20041;-59
2023/06/29 09:48:48;;;;;;;3.08;0.70;;;;;;;;;;5085362;28;20028;-59
2023/06/29 09:51:21;;;;;;;3.33;0.60;;;;;;;;;;5086317;28;20028;-60
2023/06/29 09:53:48;;;;;;;1.83;0.80;;;28.20;99.90;;;;;;5085586;28;20109;-60
2023/06/29 09:56:16;;;;;;;3.45;0.70;;;28.40;99.90;;;;;;5085188;28;20099;-62
2023/06/29 09:58:42;;;;;;;3.03;0.95;;;28.50;99.90;;;;;;5085229;28;20236;-58
2023/06/29 10:01:09;;;;;;;5.82;1.00;;;;;;;;;;5085521;28;20220;-59
2023/06/29 10:03:36;;;;;;;2.42;1.10;;;;;;;;;;5085332;28;20078;-57
2023/06/29 10:06:09;;;;;;;8.40;1.10;;;28.10;99.90;;;;;;5086047;28;20087;-54
2023/06/29 10:08:37;;;;;;;4.05;1.15;;;28.10;99.90;;;;;;5085428;28;20312;-57
2023/06/29 10:11:05;;;;;;;3.78;1.17;;;;;;;;;;5085937;28;20052;-58
2023/06/29 10:13:37;;;;;;;5.30;1.30;;;;;;;;;;5085155;28;20024;-58
2023/06/29 10:16:04;;;;;;;4.07;0.90;;;;;;;;;;5085147;28;20066;-60
2023/06/29 10:18:33;;;;;;;3.80;1.10;;;;;;;;;;5085773;28;20032;-59
2023/06/29 10:21:00;;;;;;;4.05;1.17;;;;;;;;;;5084977;28;20323;-60
2023/06/29 10:23:26;;;;;;;9.20;1.60;;;;;;;;;;5084677;28;20032;-56
2023/06/29 10:25:53;;;;;;;7.32;1.65;;;;;;;;;;5085143;28;20115;-58
2023/06/29 10:28:20;;;;;;;3.90;1.10;;;;;;;;;;5084442;28;20024;-55
2023/06/29 10:30:47;;;;;;;3.65;1.10;;;;;;;;;;5084477;28;20096;-57
2023/06/29 10:33:21;;;;;;;3.33;0.80;;;;;;;;;;5084754;28;20028;-56
2023/06/29 10:35:58;;;;;;;8.32;1.10;;;;;;;;;;5084354;28;20028;-58
2023/06/29 10:38:35;;;;;;;3.95;1.20;;;;;;;;;;5084872;28;20070;-59
2023/06/29 10:41:06;;;;;;;5.55;0.88;;;28.20;99.90;;;;;;5083866;28;20390;-60
2023/06/29 10:43:58;;;;;;;3.88;1.20;;;;;;;;;;5084726;28;20032;-59
2023/06/29 10:46:44;;;;;;;6.57;0.93;;;;;;;;;;5064445;28;20033;-55
2023/06/29 10:49:24;;;;;;;6.63;1.27;;;;;;;;;;5093396;28;20030;-53
2023/06/29 10:52:02;;;;;;;5.30;1.17;;;28.20;99.90;;;;;;5085934;28;20069;-57
2023/06/29 10:54:29;;;;;;;3.03;1.27;;;;;;;;;;5084475;28;20070;-57
2023/06/29 10:57:10;;;;;;;3.35;1.00;;;;;;;;;;5084094;28;20103;-58
2023/06/29 10:59:38;;;;;;;4.63;1.00;;;;;;;;;;5083321;28;20032;-55
2023/06/29 11:02:05;;;;;;;6.32;1.50;;;;;;;;;;5084810;28;20394;-58
2023/06/29 11:04:31;;;;;;;5.85;1.30;;;;;;;;;;5084197;28;20094;-55
2023/06/29 11:07:05;;;;;;;5.38;1.48;;;;;;;;;;5084427;28;20051;-60
2023/06/29 11:09:33;;;;;;;4.78;1.50;;;;;;;;;;5083858;28;20048;-60
2023/06/29 11:12:00;;;;;;;5.47;1.90;;;;;;;;;;5084497;28;20095;-58
2023/06/29 11:14:26;;;;;;;4.03;1.60;;;;;;;;;;5083932;28;20259;-55
2023/06/29 11:16:54;;;;;;;6.55;2.25;;;;;;;;;;5084326;28;20032;-59
2023/06/29 11:19:27;;;;;;;3.95;1.88;;;28.20;99.90;;;;;;5084142;28;20328;-56
2023/06/29 11:21:54;;;;;;;4.15;1.90;;;;;;;;;;5084023;28;20043;-58
2023/06/29 11:24:22;;;;;;;2.80;1.45;;;;;;;;;;5083986;28;20078;-56
2023/06/29 11:26:48;;;;;;;5.28;1.55;;;;;;;;;;5084449;28;20040;-59
2023/06/29 11:29:15;;;;;;;5.97;1.83;;;;;;;;;;5084083;28;20047;-56
2023/06/29 11:31:41;;;;;;;5.45;2.00;;;28.20;99.90;;;;;;5083767;28;20046;-56
2023/06/29 11:34:13;;;;;;;5.63;1.92;;;;;;;;;;5083855;28;20023;-57
2023/06/29 11:36:40;;;;;;;7.55;1.90;;;;;;;;;;5064706;28;20085;-56
2023/06/29 11:39:08;;;;;;;4.22;1.80;;;;;;;;;;5063747;28;20329;-53
2023/06/29 11:41:36;;;;;;;4.82;2.05;;;;;;;;;;5075798;28;20230;-56
2023/06/29 11:44:02;;;;;;;5.70;2.20;;;;;;;;;;5083435;28;20020;-56
2023/06/29 11:46:36;;;;;;;6.47;2.40;;;;;;;;;;5082995;28;20045;-58
2023/06/29 11:49:05;;;;;;;5.47;2.28;;;;;;;;;;5083524;28;20032;-56
2023/06/29 11:51:38;;;;;;;4.25;2.47;;;;;;;;;;5087347;28;20029;-60
2023/06/29 11:54:05;;;;;;;12.55;3.17;;;;;;;;;;5087569;28;20036;-58
2023/06/29 11:56:38;;;;;;;10.90;2.63;;;;;;;;;;5087535;28;20064;-60
2023/06/29 11:59:10;;;;;;;4.78;2.30;;;;;;;;;;5087025;28;20270;-59
2023/06/29 12:01:39;;;;;;;8.68;2.00;;;;;;;;;;5083467;28;20319;-60
2023/06/29 12:04:07;;;;;;;6.72;2.03;;;;;;;;;;5088031;28;20185;-61
2023/06/29 12:06:34;;;;;;;7.00;2.58;;;;;;;;;;5086697;28;20101;-62
2023/06/29 12:09:00;;;;;;;7.40;2.50;;;;;;;;;;5088142;28;20016;-61
2023/06/29 12:11:27;;;;;;;7.20;1.90;;;;;;;;;;5087829;28;20020;-61
2023/06/29 12:13:55;;;;;;;4.90;2.35;;;;;;;;;;5087872;28;20028;-61
2023/06/29 12:16:21;;;;;;;4.80;1.77;;;;;;;;;;5087871;28;20021;-61
2023/06/29 12:18:49;;;;;;;5.57;1.88;;;;;;;;;;5086099;28;20440;-61
2023/06/29 12:21:20;;;;;;;4.00;1.77;;;;;;;;;;5085322;28;20040;-61
2023/06/29 12:23:47;;;;;;;4.72;1.77;;;;;;;;;;5085452;28;20024;-60
2023/06/29 12:26:15;;;;;;;4.75;1.70;;;;;;;;;;5087307;28;20048;-61
2023/06/29 12:28:41;;;;;;;1.75;1.40;;;;;;;;;;5087637;28;20032;-61
2023/06/29 12:31:08;;;;;;;2.58;1.50;;;;;;;;;;5087884;28;20025;-61
2023/06/29 12:33:37;;;;;;;4.30;1.20;;;;;;;;;;5087434;28;20013;-61
2023/06/29 12:36:04;;;;;;;2.10;1.15;;;;;;;;;;5087420;28;20074;-60
2023/06/29 12:38:30;;;;;;;2.50;1.17;;;;;;;;;;5087720;28;20161;-61
2023/06/29 12:40:57;;;;;;;4.88;1.13;;;;;;;;;;5087468;28;20033;-61
2023/06/29 12:43:24;;;;;;;3.53;1.13;;;;;;;;;;5087339;28;20105;-62
2023/06/29 12:45:50;;;;;;;5.55;1.05;;;;;;;;;;5087624;28;20070;-61
2023/06/29 12:48:17;;;;;;;4.18;0.88;;;;;;;;;;5087286;28;20024;-61
2023/06/29 12:50:44;;;;;;;3.53;0.98;;;;;;;;;;5087457;28;20024;-61
2023/06/29 12:53:10;;;;;;;2.78;0.85;;;;;;;;;;5087485;28;20016;-61
2023/06/29 12:55:37;;;;;;;2.25;0.75;;;27.30;99.90;;;;;;5087408;28;20021;-61
2023/06/29 12:58:03;;;;;;;5.22;0.88;;;;;;;;;;5087256;28;20162;-61
2023/06/29 13:00:30;;;;;;;3.28;0.77;;;;;;;;;;5086820;28;20016;-61
2023/06/29 13:02:58;;;;;;;3.20;0.98;;;;;;;;;;5086182;28;20028;-64
2023/06/29 13:05:25;;;;;;;2.15;0.80;;;28.60;99.90;;;;;;5087038;28;20024;-60
2023/06/29 13:07:52;;;;;;;2.28;0.77;;;;;;;;;;5087294;28;20095;-61
2023/06/29 13:10:18;;;;;;;4.25;0.80;;;28.70;99.90;;;;;;5086932;28;20080;-60
2023/06/29 13:12:45;;;;;;;2.55;0.70;;;;;;;;;;5087120;28;20032;-61
2023/06/29 13:15:11;;;;;;;3.10;0.55;;;;;;;;;;5087168;28;20036;-60
2023/06/29 13:17:38;;;;;;;3.63;0.90;;;;;;;;;;5087558;28;20028;-61
2023/06/29 13:20:05;;;;;;;1.77;0.73;;;;;;;;;;5087289;28;20036;-62
2023/06/29 13:22:32;;;;;;;2.60;1.00;;;;;;;;;;5087284;28;20301;-61
2023/06/29 13:25:00;;;;;;;1.40;1.10;;;;;;;;;;5086817;28;20028;-62
2023/06/29 13:27:27;;;;;;;2.80;1.10;;;;;;;;;;5087286;28;20281;-61
2023/06/29 13:29:54;;;;;;;1.30;0.82;;;;;;;;;;5086740;28;20062;-61
2023/06/29 13:32:20;;;;;;;2.08;1.25;;;;;;;;;;5087176;28;20012;-62
2023/06/29 13:34:47;;;;;;;2.70;1.20;;;;;;;;;;5087043;28;20052;-61
2023/06/29 13:37:14;;;;;;;2.50;1.15;;;;;;;;;;5087077;28;20028;-61
2023/06/29 13:39:41;;;;;;;4.40;1.00;;;;;;;;;;5086652;28;20040;-62
2023/06/29 13:42:14;;;;;;;3.75;0.75;;;;;;;;;;5086189;28;20044;-60
2023/06/29 13:44:41;;;;;;;2.80;0.88;;;;;;;;;;5086537;28;20224;-60
2023/06/29 13:47:11;;;;;;;1.75;1.02;;;;;;;;;;5086682;28;20048;-62
2023/06/29 13:49:39;;;;;;;3.08;0.90;;;;;;;;;;5086292;28;20024;-61
2023/06/29 13:52:06;;;;;;;2.47;1.20;;;;;;;;;;5086437;28;20234;-61
2023/06/29 13:54:32;;;;;;;1.63;0.75;;;28.80;99.90;;;;;;5086038;28;20312;-61
2023/06/29 13:56:59;;;;;;;2.65;1.00;;;;;;;;;;5085536;28;20052;-61
2023/06/29 13:59:25;;;;;;;3.88;1.00;;;;;;;;;;5084913;28;20265;-61
2023/06/29 14:01:52;;;;;;;2.25;1.02;;;;;;;;;;5085131;28;20038;-60
2023/06/29 14:04:18;;;;;;;2.42;1.02;;;;;;;;;;5082740;28;20040;-59
2023/06/29 14:06:48;;;;;;;2.85;1.00;;;;;;;;;;5084609;28;20039;-59
2023/06/29 14:09:15;;;;;;;2.35;1.13;;;;;;;;;;5083920;28;20040;-57
2023/06/29 14:11:41;;;;;;;2.95;1.30;;;;;;;;;;5084896;28;20040;-54
2023/06/29 14:14:08;;;;;;;4.68;1.20;;;;;;;;;;5083441;28;20023;-53
2023/06/29 14:16:35;;;;;;;3.83;1.20;;;;;;;;;;5068522;28;20041;-59
2023/06/29 14:19:02;;;;;;;2.90;1.33;;;;;;;;;;5084110;28;20044;-61